sensor_id;sensor_type;location;lat;lon;timestamp;temperature;humidity
30999;DHT22;20549;50.042;8.968;2023-03-17T00:00:47;8.10;66.30
30999;DHT22;20549;50.042;8.968;2023-03-17T00:03:18;8.10;66.30
30999;DHT22;20549;50.042;8.968;2023-03-17T00:05:41;8.10;66.30
30999;DHT22;20549;50.042;8.968;2023-03-17T00:08:12;8.10;66.30
30999;DHT22;20549;50.042;8.968;2023-03-17T00:10:37;8.20;66.30
30999;DHT22;20549;50.042;8.968;2023-03-17T00:13:04;8.20;66.30
30999;DHT22;20549;50.042;8.968;2023-03-17T00:15:30;8.20;66.40
30999;DHT22;20549;50.042;8.968;2023-03-17T00:17:56;8.20;66.30
30999;DHT22;20549;50.042;8.968;2023-03-17T00:20:27;8.20;66.30
30999;DHT22;20549;50.042;8.968;2023-03-17T00:22:55;8.20;66.30
30999;DHT22;20549;50.042;8.968;2023-03-17T00:25:20;8.20;66.30
30999;DHT22;20549;50.042;8.968;2023-03-17T00:27:45;8.20;66.30
30999;DHT22;20549;50.042;8.968;2023-03-17T00:30:12;8.20;66.30
30999;DHT22;20549;50.042;8.968;2023-03-17T00:32:39;8.20;66.30
30999;DHT22;20549;50.042;8.968;2023-03-17T00:35:13;8.20;66.30
30999;DHT22;20549;50.042;8.968;2023-03-17T00:37:35;8.10;66.30
30999;DHT22;20549;50.042;8.968;2023-03-17T00:40:01;8.20;66.50
30999;DHT22;20549;50.042;8.968;2023-03-17T00:42:28;8.20;66.40
30999;DHT22;20549;50.042;8.968;2023-03-17T00:44:55;8.20;66.40
30999;DHT22;20549;50.042;8.968;2023-03-17T00:47:21;8.20;66.40
30999;DHT22;20549;50.042;8.968;2023-03-17T00:49:48;8.20;66.30
30999;DHT22;20549;50.042;8.968;2023-03-17T00:52:14;8.30;66.40
30999;DHT22;20549;50.042;8.968;2023-03-17T00:54:41;8.30;66.40
30999;DHT22;20549;50.042;8.968;2023-03-17T00:57:07;8.30;65.60
30999;DHT22;20549;50.042;8.968;2023-03-17T00:59:37;8.40;66.40
30999;DHT22;20549;50.042;8.968;2023-03-17T01:02:03;8.40;66.30
30999;DHT22;20549;50.042;8.968;2023-03-17T01:04:30;8.40;65.50
30999;DHT22;20549;50.042;8.968;2023-03-17T01:06:56;8.50;66.20
30999;DHT22;20549;50.042;8.968;2023-03-17T01:09:24;8.50;66.30
30999;DHT22;20549;50.042;8.968;2023-03-17T01:11:50;8.50;66.20
30999;DHT22;20549;50.042;8.968;2023-03-17T01:14:16;8.50;66.10
30999;DHT22;20549;50.042;8.968;2023-03-17T01:16:43;8.50;66.10
30999;DHT22;20549;50.042;8.968;2023-03-17T01:19:13;8.50;66.00
30999;DHT22;20549;50.042;8.968;2023-03-17T01:21:39;8.50;66.00
30999;DHT22;20549;50.042;8.968;2023-03-17T01:24:06;8.50;66.00
30999;DHT22;20549;50.042;8.968;2023-03-17T01:26:32;8.50;66.00
30999;DHT22;20549;50.042;8.968;2023-03-17T01:28:59;8.50;66.00
30999;DHT22;20549;50.042;8.968;2023-03-17T01:31:25;8.50;65.90
30999;DHT22;20549;50.042;8.968;2023-03-17T01:33:52;8.40;65.80
30999;DHT22;20549;50.042;8.968;2023-03-17T01:36:19;8.40;65.90
30999;DHT22;20549;50.042;8.968;2023-03-17T01:38:45;8.40;65.90
30999;DHT22;20549;50.042;8.968;2023-03-17T01:41:12;8.40;66.00
30999;DHT22;20549;50.042;8.968;2023-03-17T01:43:38;8.30;65.90
30999;DHT22;20549;50.042;8.968;2023-03-17T01:46:18;8.30;66.00
30999;DHT22;20549;50.042;8.968;2023-03-17T01:48:52;8.30;66.00
30999;DHT22;20549;50.042;8.968;2023-03-17T01:51:16;8.30;66.10
30999;DHT22;20549;50.042;8.968;2023-03-17T01:53:39;8.30;66.10
30999;DHT22;20549;50.042;8.968;2023-03-17T01:56:06;8.20;66.10
30999;DHT22;20549;50.042;8.968;2023-03-17T01:58:32;8.30;66.30
30999;DHT22;20549;50.042;8.968;2023-03-17T02:00:59;8.30;66.30
30999;DHT22;20549;50.042;8.968;2023-03-17T02:03:25;8.20;66.30
30999;DHT22;20549;50.042;8.968;2023-03-17T02:05:52;8.20;66.30
30999;DHT22;20549;50.042;8.968;2023-03-17T02:08:18;8.30;66.40
30999;DHT22;20549;50.042;8.968;2023-03-17T02:10:45;8.30;66.40
30999;DHT22;20549;50.042;8.968;2023-03-17T02:13:12;8.30;66.40
30999;DHT22;20549;50.042;8.968;2023-03-17T02:15:42;8.30;66.40
30999;DHT22;20549;50.042;8.968;2023-03-17T02:18:05;8.30;66.40
30999;DHT22;20549;50.042;8.968;2023-03-17T02:22:58;8.30;66.40
30999;DHT22;20549;50.042;8.968;2023-03-17T02:25:25;8.30;66.40
30999;DHT22;20549;50.042;8.968;2023-03-17T02:27:52;8.30;66.40
30999;DHT22;20549;50.042;8.968;2023-03-17T02:30:19;8.30;66.40
30999;DHT22;20549;50.042;8.968;2023-03-17T02:32:44;8.30;66.60
30999;DHT22;20549;50.042;8.968;2023-03-17T02:35:11;8.20;66.40
30999;DHT22;20549;50.042;8.968;2023-03-17T02:37:37;8.20;66.40
30999;DHT22;20549;50.042;8.968;2023-03-17T02:40:05;8.20;66.50
30999;DHT22;20549;50.042;8.968;2023-03-17T02:42:31;8.10;66.40
30999;DHT22;20549;50.042;8.968;2023-03-17T02:44:57;8.10;66.60
30999;DHT22;20549;50.042;8.968;2023-03-17T02:47:24;8.00;66.50
30999;DHT22;20549;50.042;8.968;2023-03-17T02:49:50;8.00;66.60
30999;DHT22;20549;50.042;8.968;2023-03-17T02:52:17;7.90;66.60
30999;DHT22;20549;50.042;8.968;2023-03-17T02:54:44;7.90;66.70
30999;DHT22;20549;50.042;8.968;2023-03-17T02:57:10;7.80;66.80
30999;DHT22;20549;50.042;8.968;2023-03-17T02:59:37;7.80;66.90
30999;DHT22;20549;50.042;8.968;2023-03-17T03:02:03;7.70;67.70
30999;DHT22;20549;50.042;8.968;2023-03-17T03:04:30;7.70;67.00
30999;DHT22;20549;50.042;8.968;2023-03-17T03:06:57;7.70;67.90
30999;DHT22;20549;50.042;8.968;2023-03-17T03:09:23;7.70;67.20
30999;DHT22;20549;50.042;8.968;2023-03-17T03:11:50;7.60;67.20
30999;DHT22;20549;50.042;8.968;2023-03-17T03:14:16;7.60;67.20
30999;DHT22;20549;50.042;8.968;2023-03-17T03:16:43;7.50;67.30
30999;DHT22;20549;50.042;8.968;2023-03-17T03:19:09;7.50;67.30
30999;DHT22;20549;50.042;8.968;2023-03-17T03:21:36;7.50;67.40
30999;DHT22;20549;50.042;8.968;2023-03-17T03:24:03;7.50;67.50
30999;DHT22;20549;50.042;8.968;2023-03-17T03:26:29;7.40;67.50
30999;DHT22;20549;50.042;8.968;2023-03-17T03:28:56;7.40;68.30
30999;DHT22;20549;50.042;8.968;2023-03-17T03:31:23;7.40;67.70
30999;DHT22;20549;50.042;8.968;2023-03-17T03:33:49;7.40;67.70
30999;DHT22;20549;50.042;8.968;2023-03-17T03:36:16;7.30;67.80
30999;DHT22;20549;50.042;8.968;2023-03-17T03:38:42;7.30;67.80
30999;DHT22;20549;50.042;8.968;2023-03-17T03:41:09;7.30;67.80
30999;DHT22;20549;50.042;8.968;2023-03-17T03:43:35;7.20;67.80
30999;DHT22;20549;50.042;8.968;2023-03-17T03:46:03;7.20;67.80
30999;DHT22;20549;50.042;8.968;2023-03-17T03:48:29;7.20;67.80
30999;DHT22;20549;50.042;8.968;2023-03-17T03:50:58;7.20;67.90
30999;DHT22;20549;50.042;8.968;2023-03-17T03:53:24;7.20;68.70
30999;DHT22;20549;50.042;8.968;2023-03-17T03:55:51;7.20;68.10
30999;DHT22;20549;50.042;8.968;2023-03-17T03:58:17;7.10;67.90
30999;DHT22;20549;50.042;8.968;2023-03-17T04:00:44;7.10;67.90
30999;DHT22;20549;50.042;8.968;2023-03-17T04:03:11;7.10;68.00
30999;DHT22;20549;50.042;8.968;2023-03-17T04:05:37;7.10;68.00
30999;DHT22;20549;50.042;8.968;2023-03-17T04:08:04;7.00;68.00
30999;DHT22;20549;50.042;8.968;2023-03-17T04:10:30;7.00;68.10
30999;DHT22;20549;50.042;8.968;2023-03-17T04:12:57;7.00;68.10
30999;DHT22;20549;50.042;8.968;2023-03-17T04:15:24;7.00;68.20
30999;DHT22;20549;50.042;8.968;2023-03-17T04:17:50;6.90;68.60
30999;DHT22;20549;50.042;8.968;2023-03-17T04:20:17;6.90;68.20
30999;DHT22;20549;50.042;8.968;2023-03-17T04:22:43;6.90;68.40
30999;DHT22;20549;50.042;8.968;2023-03-17T04:25:11;6.90;68.40
30999;DHT22;20549;50.042;8.968;2023-03-17T04:27:36;6.80;68.40
30999;DHT22;20549;50.042;8.968;2023-03-17T04:30:03;6.80;69.20
30999;DHT22;20549;50.042;8.968;2023-03-17T04:32:30;6.70;68.50
30999;DHT22;20549;50.042;8.968;2023-03-17T04:34:56;6.70;68.50
30999;DHT22;20549;50.042;8.968;2023-03-17T04:37:23;6.70;68.60
30999;DHT22;20549;50.042;8.968;2023-03-17T04:39:49;6.70;68.70
30999;DHT22;20549;50.042;8.968;2023-03-17T04:42:16;6.60;68.80
30999;DHT22;20549;50.042;8.968;2023-03-17T04:44:43;6.60;68.90
30999;DHT22;20549;50.042;8.968;2023-03-17T04:47:09;6.60;68.90
30999;DHT22;20549;50.042;8.968;2023-03-17T04:49:36;6.50;68.90
30999;DHT22;20549;50.042;8.968;2023-03-17T04:52:02;6.50;69.00
30999;DHT22;20549;50.042;8.968;2023-03-17T04:54:29;6.50;69.20
30999;DHT22;20549;50.042;8.968;2023-03-17T04:56:56;6.50;69.30
30999;DHT22;20549;50.042;8.968;2023-03-17T04:59:22;6.40;69.20
30999;DHT22;20549;50.042;8.968;2023-03-17T05:01:49;6.40;69.30
30999;DHT22;20549;50.042;8.968;2023-03-17T05:04:15;6.40;69.40
30999;DHT22;20549;50.042;8.968;2023-03-17T05:06:42;6.40;69.50
30999;DHT22;20549;50.042;8.968;2023-03-17T05:09:08;6.30;69.60
30999;DHT22;20549;50.042;8.968;2023-03-17T05:11:35;6.30;69.50
30999;DHT22;20549;50.042;8.968;2023-03-17T05:14:02;6.30;69.60
30999;DHT22;20549;50.042;8.968;2023-03-17T05:16:28;6.20;69.60
30999;DHT22;20549;50.042;8.968;2023-03-17T05:18:55;6.20;69.70
30999;DHT22;20549;50.042;8.968;2023-03-17T05:21:21;6.20;69.80
30999;DHT22;20549;50.042;8.968;2023-03-17T05:23:48;6.20;69.90
30999;DHT22;20549;50.042;8.968;2023-03-17T05:26:15;6.10;69.90
30999;DHT22;20549;50.042;8.968;2023-03-17T05:28:41;6.10;70.00
30999;DHT22;20549;50.042;8.968;2023-03-17T05:31:08;6.10;70.00
30999;DHT22;20549;50.042;8.968;2023-03-17T05:33:34;6.00;70.00
30999;DHT22;20549;50.042;8.968;2023-03-17T05:36:01;6.00;70.20
30999;DHT22;20549;50.042;8.968;2023-03-17T05:38:27;6.00;70.30
30999;DHT22;20549;50.042;8.968;2023-03-17T05:40:54;5.90;70.30
30999;DHT22;20549;50.042;8.968;2023-03-17T05:43:21;5.90;69.60
30999;DHT22;20549;50.042;8.968;2023-03-17T05:45:47;5.90;70.50
30999;DHT22;20549;50.042;8.968;2023-03-17T05:48:14;5.90;70.60
30999;DHT22;20549;50.042;8.968;2023-03-17T05:50:40;5.80;70.70
30999;DHT22;20549;50.042;8.968;2023-03-17T05:53:07;5.80;70.80
30999;DHT22;20549;50.042;8.968;2023-03-17T05:55:34;5.80;70.90
30999;DHT22;20549;50.042;8.968;2023-03-17T05:58:00;5.80;71.00
30999;DHT22;20549;50.042;8.968;2023-03-17T06:00:27;5.80;71.10
30999;DHT22;20549;50.042;8.968;2023-03-17T06:02:53;5.90;71.20
30999;DHT22;20549;50.042;8.968;2023-03-17T06:05:20;5.90;71.30
30999;DHT22;20549;50.042;8.968;2023-03-17T06:07:49;5.90;71.40
30999;DHT22;20549;50.042;8.968;2023-03-17T06:10:16;6.00;71.40
30999;DHT22;20549;50.042;8.968;2023-03-17T06:12:42;6.00;71.40
30999;DHT22;20549;50.042;8.968;2023-03-17T06:15:09;6.10;71.40
30999;DHT22;20549;50.042;8.968;2023-03-17T06:17:36;6.10;71.40
30999;DHT22;20549;50.042;8.968;2023-03-17T06:20:02;6.30;71.80
30999;DHT22;20549;50.042;8.968;2023-03-17T06:22:29;6.40;72.30
30999;DHT22;20549;50.042;8.968;2023-03-17T06:24:55;6.60;72.80
30999;DHT22;20549;50.042;8.968;2023-03-17T06:27:22;6.90;73.50
30999;DHT22;20549;50.042;8.968;2023-03-17T06:29:48;7.40;74.20
30999;DHT22;20549;50.042;8.968;2023-03-17T06:32:15;7.80;74.60
30999;DHT22;20549;50.042;8.968;2023-03-17T06:34:42;8.40;74.30
30999;DHT22;20549;50.042;8.968;2023-03-17T06:37:08;9.00;74.00
30999;DHT22;20549;50.042;8.968;2023-03-17T06:39:35;9.60;73.70
30999;DHT22;20549;50.042;8.968;2023-03-17T06:42:02;10.20;73.10
30999;DHT22;20549;50.042;8.968;2023-03-17T06:44:28;10.80;72.50
30999;DHT22;20549;50.042;8.968;2023-03-17T06:46:55;11.50;71.90
30999;DHT22;20549;50.042;8.968;2023-03-17T06:49:21;12.10;71.40
30999;DHT22;20549;50.042;8.968;2023-03-17T06:51:48;12.80;70.70
30999;DHT22;20549;50.042;8.968;2023-03-17T06:54:14;13.40;69.90
30999;DHT22;20549;50.042;8.968;2023-03-17T06:56:41;14.10;69.00
30999;DHT22;20549;50.042;8.968;2023-03-17T06:59:07;14.70;68.00
30999;DHT22;20549;50.042;8.968;2023-03-17T07:01:34;15.30;67.00
30999;DHT22;20549;50.042;8.968;2023-03-17T07:04:01;15.90;65.80
30999;DHT22;20549;50.042;8.968;2023-03-17T07:06:27;16.40;64.90
30999;DHT22;20549;50.042;8.968;2023-03-17T07:08:54;16.90;63.70
30999;DHT22;20549;50.042;8.968;2023-03-17T07:11:20;17.40;62.50
30999;DHT22;20549;50.042;8.968;2023-03-17T07:13:47;17.80;61.80
30999;DHT22;20549;50.042;8.968;2023-03-17T07:16:14;18.20;60.90
30999;DHT22;20549;50.042;8.968;2023-03-17T07:18:40;18.50;60.00
30999;DHT22;20549;50.042;8.968;2023-03-17T07:21:07;18.90;59.70
30999;DHT22;20549;50.042;8.968;2023-03-17T07:23:33;19.40;59.50
30999;DHT22;20549;50.042;8.968;2023-03-17T07:26:00;19.80;59.00
30999;DHT22;20549;50.042;8.968;2023-03-17T07:28:27;20.30;58.70
30999;DHT22;20549;50.042;8.968;2023-03-17T07:30:53;20.70;57.80
30999;DHT22;20549;50.042;8.968;2023-03-17T07:33:20;21.20;57.30
30999;DHT22;20549;50.042;8.968;2023-03-17T07:35:47;21.50;56.60
30999;DHT22;20549;50.042;8.968;2023-03-17T07:38:13;22.00;56.10
30999;DHT22;20549;50.042;8.968;2023-03-17T07:40:39;22.30;55.10
30999;DHT22;20549;50.042;8.968;2023-03-17T07:43:06;22.60;54.00
30999;DHT22;20549;50.042;8.968;2023-03-17T07:45:33;22.70;53.40
30999;DHT22;20549;50.042;8.968;2023-03-17T07:47:59;22.90;53.00
30999;DHT22;20549;50.042;8.968;2023-03-17T07:50:26;23.00;52.60
30999;DHT22;20549;50.042;8.968;2023-03-17T07:52:52;23.10;52.10
30999;DHT22;20549;50.042;8.968;2023-03-17T07:55:19;23.20;51.50
30999;DHT22;20549;50.042;8.968;2023-03-17T07:57:46;23.30;51.20
30999;DHT22;20549;50.042;8.968;2023-03-17T08:00:12;23.40;51.30
30999;DHT22;20549;50.042;8.968;2023-03-17T08:02:39;23.50;51.10
30999;DHT22;20549;50.042;8.968;2023-03-17T08:05:06;23.70;51.10
30999;DHT22;20549;50.042;8.968;2023-03-17T08:07:33;23.90;50.60
30999;DHT22;20549;50.042;8.968;2023-03-17T08:09:59;24.10;50.60
30999;DHT22;20549;50.042;8.968;2023-03-17T08:12:25;24.40;50.50
30999;DHT22;20549;50.042;8.968;2023-03-17T08:14:52;24.60;50.10
30999;DHT22;20549;50.042;8.968;2023-03-17T08:17:19;24.90;49.50
30999;DHT22;20549;50.042;8.968;2023-03-17T08:19:45;25.20;49.30
30999;DHT22;20549;50.042;8.968;2023-03-17T08:22:12;25.50;49.20
30999;DHT22;20549;50.042;8.968;2023-03-17T08:24:38;25.70;48.50
30999;DHT22;20549;50.042;8.968;2023-03-17T08:27:05;26.00;48.20
30999;DHT22;20549;50.042;8.968;2023-03-17T08:29:32;26.20;47.80
30999;DHT22;20549;50.042;8.968;2023-03-17T08:31:58;26.40;47.20
30999;DHT22;20549;50.042;8.968;2023-03-17T08:34:25;26.50;46.70
30999;DHT22;20549;50.042;8.968;2023-03-17T08:36:51;26.60;46.60
30999;DHT22;20549;50.042;8.968;2023-03-17T08:39:18;26.70;46.60
30999;DHT22;20549;50.042;8.968;2023-03-17T08:41:44;26.90;46.40
30999;DHT22;20549;50.042;8.968;2023-03-17T08:44:12;27.20;46.00
30999;DHT22;20549;50.042;8.968;2023-03-17T08:46:38;27.20;45.30
30999;DHT22;20549;50.042;8.968;2023-03-17T08:49:04;27.30;45.00
30999;DHT22;20549;50.042;8.968;2023-03-17T08:51:32;27.20;44.00
30999;DHT22;20549;50.042;8.968;2023-03-17T08:53:57;27.00;43.50
30999;DHT22;20549;50.042;8.968;2023-03-17T08:56:24;26.70;43.00
30999;DHT22;20549;50.042;8.968;2023-03-17T08:58:51;26.40;42.70
30999;DHT22;20549;50.042;8.968;2023-03-17T09:01:17;26.00;42.40
30999;DHT22;20549;50.042;8.968;2023-03-17T09:03:44;25.50;42.50
30999;DHT22;20549;50.042;8.968;2023-03-17T09:06:10;25.10;42.60
30999;DHT22;20549;50.042;8.968;2023-03-17T09:08:37;24.80;43.10
30999;DHT22;20549;50.042;8.968;2023-03-17T09:11:04;24.60;43.50
30999;DHT22;20549;50.042;8.968;2023-03-17T09:13:30;24.40;43.80
30999;DHT22;20549;50.042;8.968;2023-03-17T09:15:57;24.20;43.60
30999;DHT22;20549;50.042;8.968;2023-03-17T09:18:23;24.10;43.80
30999;DHT22;20549;50.042;8.968;2023-03-17T09:20:50;23.90;43.90
30999;DHT22;20549;50.042;8.968;2023-03-17T09:23:16;23.70;43.90
30999;DHT22;20549;50.042;8.968;2023-03-17T09:25:43;23.60;44.20
30999;DHT22;20549;50.042;8.968;2023-03-17T09:28:10;23.50;44.30
30999;DHT22;20549;50.042;8.968;2023-03-17T09:30:36;23.40;44.40
30999;DHT22;20549;50.042;8.968;2023-03-17T09:33:03;23.40;44.60
30999;DHT22;20549;50.042;8.968;2023-03-17T09:35:29;23.30;44.60
30999;DHT22;20549;50.042;8.968;2023-03-17T09:37:56;23.30;44.70
30999;DHT22;20549;50.042;8.968;2023-03-17T09:40:26;23.30;44.70
30999;DHT22;20549;50.042;8.968;2023-03-17T09:42:58;23.30;44.70
30999;DHT22;20549;50.042;8.968;2023-03-17T09:45:38;23.40;44.70
30999;DHT22;20549;50.042;8.968;2023-03-17T09:50:55;23.40;44.70
30999;DHT22;20549;50.042;8.968;2023-03-17T09:53:21;23.40;44.70
30999;DHT22;20549;50.042;8.968;2023-03-17T09:55:49;23.30;44.40
30999;DHT22;20549;50.042;8.968;2023-03-17T09:58:13;23.30;44.30
30999;DHT22;20549;50.042;8.968;2023-03-17T10:00:40;23.20;44.10
30999;DHT22;20549;50.042;8.968;2023-03-17T10:03:08;23.10;44.10
30999;DHT22;20549;50.042;8.968;2023-03-17T10:05:36;23.00;44.10
30999;DHT22;20549;50.042;8.968;2023-03-17T10:13:09;22.50;44.20
30999;DHT22;20549;50.042;8.968;2023-03-17T10:15:35;22.40;44.30
30999;DHT22;20549;50.042;8.968;2023-03-17T10:18:00;22.20;44.30
30999;DHT22;20549;50.042;8.968;2023-03-17T10:20:27;22.10;44.30
30999;DHT22;20549;50.042;8.968;2023-03-17T10:22:53;22.00;44.60
30999;DHT22;20549;50.042;8.968;2023-03-17T10:25:23;21.90;44.50
30999;DHT22;20549;50.042;8.968;2023-03-17T10:27:54;21.80;44.00
30999;DHT22;20549;50.042;8.968;2023-03-17T10:30:19;21.70;44.60
30999;DHT22;20549;50.042;8.968;2023-03-17T10:32:45;21.60;44.50
30999;DHT22;20549;50.042;8.968;2023-03-17T10:35:12;21.50;44.30
30999;DHT22;20549;50.042;8.968;2023-03-17T10:37:38;21.40;44.60
30999;DHT22;20549;50.042;8.968;2023-03-17T10:40:05;21.20;44.60
30999;DHT22;20549;50.042;8.968;2023-03-17T10:42:31;21.10;45.30
30999;DHT22;20549;50.042;8.968;2023-03-17T10:45:13;21.00;44.90
30999;DHT22;20549;50.042;8.968;2023-03-17T10:47:37;20.90;45.20
30999;DHT22;20549;50.042;8.968;2023-03-17T10:50:19;20.80;45.50
30999;DHT22;20549;50.042;8.968;2023-03-17T10:52:31;20.80;45.60
30999;DHT22;20549;50.042;8.968;2023-03-17T10:55:00;20.70;45.70
30999;DHT22;20549;50.042;8.968;2023-03-17T10:57:23;20.70;45.70
30999;DHT22;20549;50.042;8.968;2023-03-17T10:59:50;20.70;45.70
30999;DHT22;20549;50.042;8.968;2023-03-17T11:02:29;20.80;45.80
30999;DHT22;20549;50.042;8.968;2023-03-17T11:04:58;20.80;45.90
30999;DHT22;20549;50.042;8.968;2023-03-17T11:07:28;20.80;46.00
30999;DHT22;20549;50.042;8.968;2023-03-17T11:09:56;20.90;46.00
30999;DHT22;20549;50.042;8.968;2023-03-17T11:12:27;20.90;45.80
30999;DHT22;20549;50.042;8.968;2023-03-17T11:14:59;21.00;45.60
30999;DHT22;20549;50.042;8.968;2023-03-17T11:17:32;21.00;45.90
30999;DHT22;20549;50.042;8.968;2023-03-17T11:19:58;21.00;45.30
30999;DHT22;20549;50.042;8.968;2023-03-17T11:22:33;21.00;45.70
30999;DHT22;20549;50.042;8.968;2023-03-17T11:24:59;21.00;45.60
30999;DHT22;20549;50.042;8.968;2023-03-17T11:33:05;21.00;45.50
30999;DHT22;20549;50.042;8.968;2023-03-17T11:35:48;21.00;45.50
30999;DHT22;20549;50.042;8.968;2023-03-17T11:38:27;21.00;45.60
30999;DHT22;20549;50.042;8.968;2023-03-17T11:49:04;20.90;45.50
30999;DHT22;20549;50.042;8.968;2023-03-17T11:54:37;20.90;45.60
30999;DHT22;20549;50.042;8.968;2023-03-17T11:57:02;20.90;45.50
30999;DHT22;20549;50.042;8.968;2023-03-17T11:59:50;20.90;45.40
30999;DHT22;20549;50.042;8.968;2023-03-17T12:02:26;20.90;45.50
30999;DHT22;20549;50.042;8.968;2023-03-17T12:05:00;20.90;45.70
30999;DHT22;20549;50.042;8.968;2023-03-17T12:07:29;20.90;45.60
30999;DHT22;20549;50.042;8.968;2023-03-17T12:12:23;21.00;45.80
30999;DHT22;20549;50.042;8.968;2023-03-17T12:14:47;21.00;46.00
30999;DHT22;20549;50.042;8.968;2023-03-17T12:25:33;21.30;45.50
30999;DHT22;20549;50.042;8.968;2023-03-17T12:28:05;21.40;45.40
30999;DHT22;20549;50.042;8.968;2023-03-17T12:30:36;21.40;45.30
30999;DHT22;20549;50.042;8.968;2023-03-17T12:33:16;21.40;45.20
30999;DHT22;20549;50.042;8.968;2023-03-17T12:35:41;21.40;45.20
30999;DHT22;20549;50.042;8.968;2023-03-17T12:38:11;21.40;44.90
30999;DHT22;20549;50.042;8.968;2023-03-17T12:43:33;21.40;44.90
30999;DHT22;20549;50.042;8.968;2023-03-17T12:51:59;21.30;45.30
30999;DHT22;20549;50.042;8.968;2023-03-17T12:54:25;21.30;45.40
30999;DHT22;20549;50.042;8.968;2023-03-17T12:56:50;21.30;45.40
30999;DHT22;20549;50.042;8.968;2023-03-17T12:59:18;21.40;45.40
30999;DHT22;20549;50.042;8.968;2023-03-17T13:01:44;21.40;45.40
30999;DHT22;20549;50.042;8.968;2023-03-17T13:04:22;21.50;45.40
30999;DHT22;20549;50.042;8.968;2023-03-17T13:07:10;21.50;45.40
30999;DHT22;20549;50.042;8.968;2023-03-17T13:09:43;21.60;45.60
30999;DHT22;20549;50.042;8.968;2023-03-17T13:20:36;21.80;45.50
30999;DHT22;20549;50.042;8.968;2023-03-17T13:23:12;21.80;45.40
30999;DHT22;20549;50.042;8.968;2023-03-17T13:35:46;22.10;45.30
30999;DHT22;20549;50.042;8.968;2023-03-17T13:38:23;22.10;45.40
30999;DHT22;20549;50.042;8.968;2023-03-17T13:46:20;22.20;45.00
30999;DHT22;20549;50.042;8.968;2023-03-17T13:48:46;22.20;45.00
30999;DHT22;20549;50.042;8.968;2023-03-17T13:51:25;22.20;45.00
30999;DHT22;20549;50.042;8.968;2023-03-17T14:01:35;22.20;45.00
30999;DHT22;20549;50.042;8.968;2023-03-17T14:04:01;22.20;45.00
30999;DHT22;20549;50.042;8.968;2023-03-17T14:06:27;22.20;45.10
30999;DHT22;20549;50.042;8.968;2023-03-17T14:08:54;22.10;44.90
30999;DHT22;20549;50.042;8.968;2023-03-17T14:11:27;22.10;44.80
30999;DHT22;20549;50.042;8.968;2023-03-17T14:14:16;22.10;44.90
30999;DHT22;20549;50.042;8.968;2023-03-17T14:16:49;22.00;44.90
30999;DHT22;20549;50.042;8.968;2023-03-17T14:19:16;22.10;45.10
30999;DHT22;20549;50.042;8.968;2023-03-17T14:21:41;22.00;45.10
30999;DHT22;20549;50.042;8.968;2023-03-17T14:24:20;22.00;45.10
30999;DHT22;20549;50.042;8.968;2023-03-17T14:26:46;21.90;45.10
30999;DHT22;20549;50.042;8.968;2023-03-17T14:29:16;21.90;45.30
30999;DHT22;20549;50.042;8.968;2023-03-17T14:31:45;21.90;45.30
30999;DHT22;20549;50.042;8.968;2023-03-17T14:34:11;21.90;45.40
30999;DHT22;20549;50.042;8.968;2023-03-17T14:36:35;21.90;45.30
30999;DHT22;20549;50.042;8.968;2023-03-17T14:39:02;21.80;45.20
30999;DHT22;20549;50.042;8.968;2023-03-17T14:41:28;21.80;45.20
30999;DHT22;20549;50.042;8.968;2023-03-17T14:43:58;21.70;45.20
30999;DHT22;20549;50.042;8.968;2023-03-17T14:46:26;21.70;45.20
30999;DHT22;20549;50.042;8.968;2023-03-17T14:48:55;21.60;45.30
30999;DHT22;20549;50.042;8.968;2023-03-17T14:51:25;21.60;45.40
30999;DHT22;20549;50.042;8.968;2023-03-17T14:53:50;21.60;45.50
30999;DHT22;20549;50.042;8.968;2023-03-17T14:56:23;21.50;45.60
30999;DHT22;20549;50.042;8.968;2023-03-17T14:58:49;21.50;45.70
30999;DHT22;20549;50.042;8.968;2023-03-17T15:01:22;21.50;45.80
30999;DHT22;20549;50.042;8.968;2023-03-17T15:03:58;21.40;45.90
30999;DHT22;20549;50.042;8.968;2023-03-17T15:06:24;21.40;46.00
30999;DHT22;20549;50.042;8.968;2023-03-17T15:08:49;21.40;46.00
30999;DHT22;20549;50.042;8.968;2023-03-17T15:11:41;21.40;46.00
30999;DHT22;20549;50.042;8.968;2023-03-17T15:13:46;21.40;46.00
30999;DHT22;20549;50.042;8.968;2023-03-17T15:16:16;21.30;45.90
30999;DHT22;20549;50.042;8.968;2023-03-17T15:18:41;21.30;46.00
30999;DHT22;20549;50.042;8.968;2023-03-17T15:21:27;21.30;45.90
30999;DHT22;20549;50.042;8.968;2023-03-17T15:23:52;21.30;46.00
30999;DHT22;20549;50.042;8.968;2023-03-17T15:26:20;21.20;46.00
30999;DHT22;20549;50.042;8.968;2023-03-17T15:28:46;21.10;46.00
30999;DHT22;20549;50.042;8.968;2023-03-17T15:31:12;21.10;46.00
30999;DHT22;20549;50.042;8.968;2023-03-17T15:33:39;21.00;46.00
30999;DHT22;20549;50.042;8.968;2023-03-17T15:36:06;20.90;45.90
30999;DHT22;20549;50.042;8.968;2023-03-17T15:38:32;20.90;45.90
30999;DHT22;20549;50.042;8.968;2023-03-17T15:40:58;20.80;46.00
30999;DHT22;20549;50.042;8.968;2023-03-17T15:43:25;20.70;46.10
30999;DHT22;20549;50.042;8.968;2023-03-17T15:46:02;20.60;46.20
30999;DHT22;20549;50.042;8.968;2023-03-17T15:48:29;20.60;46.30
30999;DHT22;20549;50.042;8.968;2023-03-17T15:50:54;20.50;46.40
30999;DHT22;20549;50.042;8.968;2023-03-17T15:53:21;20.40;46.50
30999;DHT22;20549;50.042;8.968;2023-03-17T15:55:47;20.40;46.50
30999;DHT22;20549;50.042;8.968;2023-03-17T15:58:14;20.30;46.50
30999;DHT22;20549;50.042;8.968;2023-03-17T16:00:40;20.30;46.60
30999;DHT22;20549;50.042;8.968;2023-03-17T16:05:52;20.10;46.70
30999;DHT22;20549;50.042;8.968;2023-03-17T16:08:19;20.00;46.80
30999;DHT22;20549;50.042;8.968;2023-03-17T16:10:45;19.90;46.90
30999;DHT22;20549;50.042;8.968;2023-03-17T16:13:12;19.80;46.90
30999;DHT22;20549;50.042;8.968;2023-03-17T16:15:39;19.80;47.00
30999;DHT22;20549;50.042;8.968;2023-03-17T16:18:06;19.70;47.20
30999;DHT22;20549;50.042;8.968;2023-03-17T16:20:39;19.70;47.20
30999;DHT22;20549;50.042;8.968;2023-03-17T16:25:39;19.50;47.40
30999;DHT22;20549;50.042;8.968;2023-03-17T16:28:11;19.50;47.50
30999;DHT22;20549;50.042;8.968;2023-03-17T16:30:33;19.40;47.70
30999;DHT22;20549;50.042;8.968;2023-03-17T16:33:00;19.30;47.60
30999;DHT22;20549;50.042;8.968;2023-03-17T16:35:26;19.30;47.90
30999;DHT22;20549;50.042;8.968;2023-03-17T16:37:54;19.30;47.90
30999;DHT22;20549;50.042;8.968;2023-03-17T16:40:25;19.20;48.00
30999;DHT22;20549;50.042;8.968;2023-03-17T16:42:51;19.20;48.10
30999;DHT22;20549;50.042;8.968;2023-03-17T16:45:21;19.10;48.20
30999;DHT22;20549;50.042;8.968;2023-03-17T16:47:49;19.10;48.30
30999;DHT22;20549;50.042;8.968;2023-03-17T16:50:16;19.00;48.40
30999;DHT22;20549;50.042;8.968;2023-03-17T16:52:42;19.00;48.50
30999;DHT22;20549;50.042;8.968;2023-03-17T16:55:09;18.90;48.60
30999;DHT22;20549;50.042;8.968;2023-03-17T16:57:35;18.90;48.80
30999;DHT22;20549;50.042;8.968;2023-03-17T17:00:05;18.80;48.80
30999;DHT22;20549;50.042;8.968;2023-03-17T17:02:28;18.80;48.90